Selected Aviation Weather Reports

Never base important decisions on this or any weather information obtained from a non-NWS site!

Last update: Jul 20, 2017, 11:24 pm CDT

 

There are no active watches, warnings or advisories for the Mid-South area.

METAR for KATL, KDFW, KEWR, KLAX, KMEM & KORD

METAR is also known as Meteorological Terminal Aviation Routine Weather Report or Met eorological Aerodrome Report.

Final Testing in progress.

(07/08/17 - 9:36 am)

My sincere thanks for your help!


2017/07/21 03:52 KATL 210352Z 31007KT 10SM FEW250 27/23 A3006 RMK AO2 SLP167 T02720233

KATL, Jul 21, 2017, 03:52Z
Hartsfield-Jackson Atlanta International Airport
Wind: 310° @ 7 kts
Visibility: 10 Statute miles
Clouds: Few @ 25,000 ft
Altimeter: 30.06 in/Hg
Sea Level Pressure: 1016.7 mb
Temperature: 80.96°F (27.2°C)
Dew Point: 73.94°F (23.3°C)

2017/07/21 03:53 KDFW 210353Z 15010KT 9SM CLR 32/21 A3000 RMK AO2 SLP147 T03170211 $

KDFW, Jul 21, 2017, 03:53Z
Dallas-Ft. Worth International Airport
Wind: 150° @ 10 kts
Visibility: 9 Statute miles
Clouds: Skies Clear
Altimeter: 30.00 in/Hg
Sea Level Pressure: 1014.7 mb
Temperature: 89.06°F (31.7°C)
Dew Point: 69.98°F (21.1°C)
Additional Remarks:
Maintenance Needed on the System.

2017/07/21 03:51 KEWR 210351Z 23006KT 10SM FEW060 FEW160 SCT250 24/21 A2988 RMK AO2 SLP117 T02440211

KEWR, Jul 21, 2017, 03:51Z
Newark Liberty International Airport
Wind: 230° @ 6 kts
Visibility: 10 Statute miles
Clouds: Few @ 6,000 ft
 Few @ 16,000 ft
 Scattered @ 25,000 ft
Altimeter: 29.88 in/Hg
Sea Level Pressure: 1011.7 mb
Temperature: 75.92°F (24.4°C)
Dew Point: 69.98°F (21.1°C)

2017/07/21 03:53 KLAX 210353Z 27010KT 10SM CLR 21/17 A2995 RMK AO2 SLP140 T02060172 $

KLAX, Jul 21, 2017, 03:53Z
Los Angeles International Airport
Wind: 270° @ 10 kts
Visibility: 10 Statute miles
Clouds: Skies Clear
Altimeter: 29.95 in/Hg
Sea Level Pressure: 1014.0 mb
Temperature: 69.08°F (20.6°C)
Dew Point: 62.96°F (17.2°C)
Additional Remarks:
Maintenance Needed on the System.

2017/07/21 03:54 KMEM 210354Z 00000KT 9SM CLR 28/25 A3003 RMK AO2 SLP163 T02830250

KMEM, Jul 21, 2017, 03:54Z
Memphis International Airport
Wind: Calm
Visibility: 9 Statute miles
Clouds: Skies Clear
Altimeter: 30.03 in/Hg
Sea Level Pressure: 1016.3 mb
Temperature: 82.94°F (28.3°C)
Dew Point: 77°F (25.0°C)

2017/07/21 03:51 KORD 210351Z 00000KT 10SM FEW038 FEW060 24/21 A2997 RMK AO2 SLP143 T02440206

KORD, Jul 21, 2017, 03:51Z
Chicago O’Hare International Airport
Wind: Calm
Visibility: 10 Statute miles
Clouds: Few @ 3,800 ft
 Few @ 6,000 ft
Altimeter: 29.97 in/Hg
Sea Level Pressure: 1014.3 mb
Temperature: 75.92°F (24.4°C)
Dew Point: 69.08°F (20.6°C)

Top of page